createdAt,value
2018-10-21T00:01:08.872Z,5.60
2018-10-21T00:03:37.549Z,5.50
2018-10-21T00:06:06.372Z,5.40
2018-10-21T00:08:35.391Z,5.30
2018-10-21T00:11:04.136Z,5.20
2018-10-21T00:13:32.890Z,5.10
2018-10-21T00:16:01.788Z,5.10
2018-10-21T00:18:30.681Z,5.10
2018-10-21T00:20:59.325Z,4.90
2018-10-21T00:23:27.952Z,4.80
2018-10-21T00:25:56.636Z,4.80
2018-10-21T00:28:25.360Z,4.70
2018-10-21T00:30:54.159Z,4.60
2018-10-21T00:33:22.805Z,4.50
2018-10-21T00:35:51.753Z,4.50
2018-10-21T00:38:20.347Z,4.40
2018-10-21T00:40:49.074Z,4.40
2018-10-21T00:43:17.767Z,4.40
2018-10-21T00:45:46.398Z,4.30
2018-10-21T00:48:15.425Z,4.30
2018-10-21T00:50:44.459Z,4.20
2018-10-21T00:53:13.434Z,4.00
2018-10-21T00:55:42.365Z,4.10
2018-10-21T00:58:11.097Z,4.10
2018-10-21T01:00:40.016Z,4.00
2018-10-21T01:03:08.711Z,4.10
2018-10-21T01:05:37.421Z,4.10
2018-10-21T01:08:06.217Z,4.00
2018-10-21T01:10:35.008Z,4.00
2018-10-21T01:13:03.558Z,4.00
2018-10-21T01:15:32.066Z,4.00
2018-10-21T01:18:00.948Z,3.80
2018-10-21T01:20:29.729Z,3.70
2018-10-21T01:22:58.296Z,3.70
2018-10-21T01:25:27.257Z,3.60
2018-10-21T01:27:55.948Z,3.70
2018-10-21T01:30:24.765Z,3.80
2018-10-21T01:32:53.402Z,3.80
2018-10-21T01:35:22.687Z,3.80
2018-10-21T01:37:51.523Z,3.70
2018-10-21T01:40:27.288Z,3.60
2018-10-21T01:42:56.091Z,3.60
2018-10-21T01:45:25.672Z,3.60
2018-10-21T01:47:54.620Z,3.60
2018-10-21T01:50:23.932Z,3.50
2018-10-21T01:52:52.813Z,3.30
2018-10-21T01:55:21.801Z,3.20
2018-10-21T01:57:50.741Z,3.10
2018-10-21T02:00:19.355Z,3.30
2018-10-21T02:02:48.033Z,3.30
2018-10-21T02:05:16.623Z,3.20
2018-10-21T02:07:45.145Z,3.20
2018-10-21T02:10:13.763Z,3.20
2018-10-21T02:12:42.449Z,3.10
2018-10-21T02:15:12.275Z,3.00
2018-10-21T02:17:41.133Z,3.10
2018-10-21T02:20:11.027Z,3.00
2018-10-21T02:22:40.058Z,3.00
2018-10-21T02:25:09.052Z,2.90
2018-10-21T02:27:38.421Z,2.90
2018-10-21T02:30:09.521Z,2.90
2018-10-21T02:32:38.569Z,2.90
2018-10-21T02:35:08.323Z,2.90
2018-10-21T02:37:37.360Z,2.80
2018-10-21T02:40:07.256Z,2.80
2018-10-21T02:42:35.809Z,2.70
2018-10-21T02:45:04.514Z,2.70
2018-10-21T02:47:33.022Z,2.60
2018-10-21T02:50:01.525Z,2.60
2018-10-21T02:52:30.183Z,2.50
2018-10-21T02:55:02.328Z,2.50
2018-10-21T02:57:30.889Z,2.60
2018-10-21T02:59:59.408Z,2.60
2018-10-21T03:02:27.960Z,2.60
2018-10-21T03:04:56.567Z,2.60
2018-10-21T03:07:28.799Z,2.70
2018-10-21T03:09:57.513Z,2.80
2018-10-21T03:12:26.101Z,2.70
2018-10-21T03:14:54.772Z,2.70
2018-10-21T03:17:23.357Z,2.80
2018-10-21T03:19:51.934Z,2.80
2018-10-21T03:22:20.496Z,2.80
2018-10-21T03:24:49.027Z,2.70
2018-10-21T03:27:17.603Z,2.80
2018-10-21T03:29:46.085Z,2.80
2018-10-21T03:32:14.696Z,2.70
2018-10-21T03:34:43.597Z,2.80
2018-10-21T03:37:12.420Z,2.80
2018-10-21T03:39:41.468Z,2.90
2018-10-21T03:42:09.975Z,2.60
2018-10-21T03:44:38.530Z,2.40
2018-10-21T03:47:07.011Z,2.40
2018-10-21T03:49:36.013Z,2.40
2018-10-21T03:52:04.980Z,2.50
2018-10-21T03:54:33.670Z,2.50
2018-10-21T03:57:02.741Z,2.60
2018-10-21T03:59:31.478Z,2.50
2018-10-21T04:02:00.214Z,2.40
2018-10-21T04:04:28.739Z,2.40
2018-10-21T04:06:57.236Z,2.50
2018-10-21T04:09:26.232Z,2.60
2018-10-21T04:11:54.792Z,2.60
2018-10-21T04:14:23.584Z,2.60
2018-10-21T04:16:52.362Z,2.60
2018-10-21T04:19:21.085Z,2.60
2018-10-21T04:21:49.781Z,2.40
2018-10-21T04:24:18.290Z,2.10
2018-10-21T04:26:46.797Z,2.30
2018-10-21T04:29:15.336Z,2.30
2018-10-21T04:31:44.076Z,2.30
2018-10-21T04:34:12.663Z,2.30
2018-10-21T04:36:41.307Z,2.30
2018-10-21T04:39:19.916Z,2.10
2018-10-21T04:41:48.476Z,2.00
2018-10-21T04:44:17.062Z,2.10
2018-10-21T04:46:45.629Z,2.10
2018-10-21T04:49:14.243Z,2.10
2018-10-21T04:51:42.880Z,2.10
2018-10-21T04:54:11.438Z,2.10
2018-10-21T04:56:39.965Z,2.10
2018-10-21T04:59:08.689Z,2.20
2018-10-21T05:01:37.408Z,2.30
2018-10-21T05:04:06.188Z,2.20
2018-10-21T05:06:34.856Z,2.20
2018-10-21T05:09:03.709Z,2.20
2018-10-21T05:11:32.237Z,2.10
2018-10-21T05:14:00.913Z,2.10
2018-10-21T05:16:29.778Z,2.00
2018-10-21T05:18:58.504Z,2.20
2018-10-21T05:21:27.073Z,2.10
2018-10-21T05:23:55.856Z,1.80
2018-10-21T05:26:24.300Z,1.80
2018-10-21T05:28:52.874Z,1.70
2018-10-21T05:31:21.519Z,1.70
2018-10-21T05:33:50.106Z,1.50
2018-10-21T05:36:18.749Z,1.60
2018-10-21T05:38:47.439Z,1.70
2018-10-21T05:41:15.980Z,1.60
2018-10-21T05:43:44.953Z,1.80
2018-10-21T05:46:20.345Z,1.80
2018-10-21T05:48:49.106Z,1.80
2018-10-21T05:51:17.680Z,1.60
2018-10-21T05:53:46.420Z,1.60
2018-10-21T05:56:15.067Z,1.60
2018-10-21T05:58:43.827Z,1.60
2018-10-21T06:01:12.823Z,1.70
2018-10-21T06:03:41.552Z,1.70
2018-10-21T06:06:10.158Z,1.80
2018-10-21T06:08:38.716Z,1.90
2018-10-21T06:11:07.351Z,1.90
2018-10-21T06:13:35.862Z,1.90
2018-10-21T06:16:04.380Z,2.00
2018-10-21T06:18:33.378Z,1.80
2018-10-21T06:21:03.957Z,1.70
2018-10-21T06:23:32.561Z,1.60
2018-10-21T06:26:01.064Z,1.60
2018-10-21T06:28:29.659Z,1.60
2018-10-21T06:30:58.481Z,1.60
2018-10-21T06:33:27.094Z,1.60
2018-10-21T06:35:55.914Z,1.80
2018-10-21T06:38:25.046Z,1.80
2018-10-21T06:40:54.037Z,2.00
2018-10-21T06:43:22.805Z,2.10
2018-10-21T06:45:52.020Z,2.40
2018-10-21T06:48:21.146Z,2.50
2018-10-21T06:50:49.724Z,2.50
2018-10-21T06:53:18.282Z,2.40
2018-10-21T06:55:47.093Z,2.40
2018-10-21T06:58:15.663Z,2.40
2018-10-21T07:00:44.389Z,2.40
2018-10-21T07:03:13.041Z,2.40
2018-10-21T07:06:15.282Z,2.40
2018-10-21T07:08:44.392Z,2.40
2018-10-21T07:11:13.163Z,2.60
2018-10-21T07:13:42.043Z,2.70
2018-10-21T07:16:11.180Z,2.80
2018-10-21T07:18:40.297Z,2.90
2018-10-21T07:21:08.902Z,3.20
2018-10-21T07:23:37.563Z,3.30
2018-10-21T07:26:06.832Z,3.30
2018-10-21T07:28:35.812Z,3.60
2018-10-21T07:31:04.828Z,3.70
2018-10-21T07:33:33.367Z,3.70
2018-10-21T07:36:02.198Z,3.80
2018-10-21T07:38:30.949Z,3.90
2018-10-21T07:40:59.643Z,4.00
2018-10-21T07:43:28.340Z,4.00
2018-10-21T07:45:57.153Z,4.10
2018-10-21T07:48:25.925Z,4.20
2018-10-21T07:50:54.672Z,4.30
2018-10-21T07:53:23.521Z,4.40
2018-10-21T07:55:52.238Z,4.60
2018-10-21T07:58:20.762Z,4.70
2018-10-21T08:00:49.415Z,4.80
2018-10-21T08:03:17.980Z,5.00
2018-10-21T08:05:57.758Z,5.10
2018-10-21T08:08:27.353Z,5.30
2018-10-21T08:10:56.172Z,5.40
2018-10-21T08:13:26.274Z,5.70
2018-10-21T08:15:55.051Z,5.90
2018-10-21T08:18:23.669Z,4.20
2018-10-21T08:20:52.366Z,6.30
2018-10-21T08:23:21.227Z,6.50
2018-10-21T08:25:50.965Z,6.60
2018-10-21T08:28:19.788Z,6.80
2018-10-21T08:30:48.465Z,7.00
2018-10-21T08:33:17.310Z,7.30
2018-10-21T08:35:46.069Z,7.50
2018-10-21T08:38:14.800Z,7.80
2018-10-21T08:40:43.379Z,8.10
2018-10-21T08:43:12.204Z,8.20
2018-10-21T08:45:40.800Z,8.50
2018-10-21T08:48:09.730Z,8.70
2018-10-21T08:50:38.437Z,9.20
2018-10-21T08:53:07.234Z,9.40
2018-10-21T08:55:35.793Z,9.70
2018-10-21T08:58:04.613Z,10.00
2018-10-21T09:00:33.256Z,10.40
2018-10-21T09:03:02.224Z,11.00
2018-10-21T09:05:30.912Z,11.20
2018-10-21T09:07:59.528Z,11.90
2018-10-21T09:10:28.088Z,12.20
2018-10-21T09:12:56.950Z,12.60
2018-10-21T09:15:25.547Z,12.90
2018-10-21T09:17:54.344Z,13.60
2018-10-21T09:20:23.164Z,14.70
2018-10-21T09:22:51.905Z,15.40
2018-10-21T09:25:20.557Z,16.20
2018-10-21T09:27:49.514Z,17.10
2018-10-21T09:30:18.460Z,17.60
2018-10-21T09:32:47.171Z,17.50
2018-10-21T09:35:18.049Z,18.20
2018-10-21T09:37:47.164Z,18.40
2018-10-21T09:40:19.164Z,18.30
2018-10-21T09:42:48.659Z,19.20
2018-10-21T09:45:19.687Z,19.70
2018-10-21T09:47:48.600Z,20.10
2018-10-21T09:50:17.582Z,20.20
2018-10-21T09:52:46.453Z,20.30
2018-10-21T09:55:20.254Z,19.80
2018-10-21T09:57:49.724Z,19.70
2018-10-21T10:00:23.838Z,20.70
2018-10-21T10:02:57.912Z,21.30
2018-10-21T10:05:26.824Z,22.00
2018-10-21T10:07:56.273Z,22.10
2018-10-21T10:10:25.554Z,22.80
2018-10-21T10:12:54.648Z,23.10
2018-10-21T10:15:23.750Z,22.70
2018-10-21T10:17:52.947Z,23.90
2018-10-21T10:20:21.805Z,24.10
2018-10-21T10:22:50.662Z,24.60
2018-10-21T10:25:19.629Z,24.30
2018-10-21T10:27:48.393Z,23.70
2018-10-21T10:30:17.073Z,24.30
2018-10-21T10:32:45.899Z,25.10
2018-10-21T10:35:15.815Z,25.80
2018-10-21T10:37:44.768Z,26.30
2018-10-21T10:40:14.245Z,26.00
2018-10-21T10:42:43.371Z,25.30
2018-10-21T10:45:12.237Z,25.00
2018-10-21T10:47:41.156Z,25.50
2018-10-21T10:50:11.338Z,25.10
2018-10-21T10:52:40.421Z,25.20
2018-10-21T10:55:09.675Z,25.80
2018-10-21T10:57:38.428Z,26.10
2018-10-21T11:00:09.143Z,25.70
2018-10-21T11:02:37.843Z,26.40
2018-10-21T11:05:07.405Z,26.30
2018-10-21T11:07:36.202Z,26.90
2018-10-21T11:10:05.928Z,27.00
2018-10-21T11:12:34.565Z,26.70
2018-10-21T11:15:03.127Z,27.00
2018-10-21T11:17:31.994Z,27.50
2018-10-21T11:20:01.165Z,27.60
2018-10-21T11:22:29.828Z,27.80
2018-10-21T11:24:58.628Z,28.00
2018-10-21T11:27:27.500Z,27.70
2018-10-21T11:29:56.965Z,26.80
2018-10-21T11:32:25.987Z,27.20
2018-10-21T11:34:54.689Z,26.50
2018-10-21T11:37:23.756Z,24.80
2018-10-21T11:39:52.707Z,25.10
2018-10-21T11:42:21.607Z,25.80
2018-10-21T11:44:50.560Z,27.00
2018-10-21T11:47:19.459Z,27.00
2018-10-21T11:49:48.245Z,27.00
2018-10-21T11:52:17.274Z,27.30
2018-10-21T11:54:46.327Z,28.30
2018-10-21T11:57:15.344Z,27.20
2018-10-21T11:59:44.283Z,27.40
2018-10-21T12:02:13.222Z,27.70
2018-10-21T12:04:42.449Z,26.90
2018-10-21T12:07:11.393Z,27.50
2018-10-21T12:09:40.309Z,28.10
2018-10-21T12:12:09.357Z,28.60
2018-10-21T12:14:38.292Z,27.60
2018-10-21T12:17:07.655Z,29.20
2018-10-21T12:19:36.457Z,30.00
2018-10-21T12:22:05.547Z,27.70
2018-10-21T12:24:34.162Z,28.00
2018-10-21T12:27:03.098Z,28.60
2018-10-21T12:29:31.859Z,29.80
2018-10-21T12:32:00.880Z,29.40
2018-10-21T12:34:30.048Z,27.80
2018-10-21T12:36:58.860Z,29.40
2018-10-21T12:39:27.688Z,30.70
2018-10-21T12:41:56.391Z,29.40
2018-10-21T12:44:25.173Z,28.70
2018-10-21T12:46:53.865Z,28.90
2018-10-21T12:49:22.660Z,29.20
2018-10-21T12:51:51.540Z,30.40
2018-10-21T12:54:20.455Z,29.40
2018-10-21T12:56:49.110Z,31.30
2018-10-21T12:59:18.111Z,31.20
2018-10-21T13:01:47.034Z,29.80
2018-10-21T13:04:15.922Z,30.00
2018-10-21T13:06:44.664Z,31.50
2018-10-21T13:09:13.446Z,31.10
2018-10-21T13:11:42.514Z,30.50
2018-10-21T13:14:11.029Z,31.00
2018-10-21T13:16:39.941Z,31.90
2018-10-21T13:19:08.658Z,32.70
2018-10-21T13:21:37.530Z,33.10
2018-10-21T13:24:06.505Z,32.30
2018-10-21T13:26:35.065Z,30.60
2018-10-21T13:29:04.038Z,30.70
2018-10-21T13:31:32.918Z,30.20
2018-10-21T13:34:01.802Z,30.70
2018-10-21T13:36:30.462Z,30.20
2018-10-21T13:38:59.492Z,31.20
2018-10-21T13:41:28.484Z,31.40
2018-10-21T13:43:57.013Z,32.00
2018-10-21T13:46:25.861Z,32.10
2018-10-21T13:48:54.689Z,32.90
2018-10-21T13:51:23.368Z,33.00
2018-10-21T13:53:52.516Z,33.60
2018-10-21T13:56:21.250Z,33.20
2018-10-21T13:58:50.059Z,33.10
2018-10-21T14:01:19.261Z,31.40
2018-10-21T14:03:48.409Z,31.80
2018-10-21T14:06:17.328Z,32.00
2018-10-21T14:08:46.270Z,33.40
2018-10-21T14:11:15.053Z,32.80
2018-10-21T14:13:44.142Z,32.10
2018-10-21T14:16:13.268Z,32.50
2018-10-21T14:18:42.123Z,32.40
2018-10-21T14:21:10.874Z,33.00
2018-10-21T14:23:39.925Z,33.40
2018-10-21T14:26:08.735Z,32.40
2018-10-21T14:28:37.771Z,32.20
2018-10-21T14:31:06.890Z,32.20
2018-10-21T14:33:35.744Z,33.20
2018-10-21T14:36:04.717Z,32.70
2018-10-21T14:38:33.766Z,30.10
2018-10-21T14:41:02.639Z,30.60
2018-10-21T14:43:31.649Z,30.50
2018-10-21T14:46:00.891Z,30.40
2018-10-21T14:48:29.583Z,28.40
2018-10-21T14:50:58.417Z,26.50
2018-10-21T14:53:27.401Z,24.90
2018-10-21T14:55:56.196Z,23.60
2018-10-21T14:58:25.100Z,22.40
2018-10-21T15:00:53.785Z,21.40
2018-10-21T15:03:22.509Z,20.80
2018-10-21T15:05:51.497Z,20.20
2018-10-21T15:08:20.456Z,19.90
2018-10-21T15:10:49.543Z,19.70
2018-10-21T15:13:18.506Z,19.40
2018-10-21T15:15:47.183Z,19.10
2018-10-21T15:18:16.537Z,18.60
2018-10-21T15:20:45.488Z,18.30
2018-10-21T15:23:14.401Z,17.90
2018-10-21T15:25:43.331Z,17.60
2018-10-21T15:28:12.287Z,17.30
2018-10-21T15:30:41.025Z,17.00
2018-10-21T15:33:10.034Z,16.80
2018-10-21T15:35:39.362Z,16.70
2018-10-21T15:38:08.275Z,16.50
2018-10-21T15:40:37.283Z,16.30
2018-10-21T15:43:06.320Z,16.10
2018-10-21T15:45:35.583Z,16.10
2018-10-21T15:48:04.491Z,15.90
2018-10-21T15:50:33.252Z,15.70
2018-10-21T15:53:02.350Z,15.50
2018-10-21T15:55:31.268Z,15.40
2018-10-21T15:58:00.243Z,15.20
2018-10-21T16:00:29.163Z,15.10
2018-10-21T16:02:58.132Z,14.80
2018-10-21T16:05:26.803Z,14.60
2018-10-21T16:07:55.865Z,14.40
2018-10-21T16:10:24.575Z,14.20
2018-10-21T16:12:53.780Z,14.00
2018-10-21T16:15:22.652Z,13.80
2018-10-21T16:17:51.648Z,13.70
2018-10-21T16:20:20.868Z,13.50
2018-10-21T16:22:49.747Z,13.30
2018-10-21T16:25:18.617Z,13.30
2018-10-21T16:27:47.475Z,13.10
2018-10-21T16:30:17.068Z,13.00
2018-10-21T16:32:46.190Z,12.80
2018-10-21T16:35:15.202Z,12.60
2018-10-21T16:37:44.115Z,12.40
2018-10-21T16:40:14.460Z,12.40
2018-10-21T16:42:43.272Z,12.20
2018-10-21T16:45:13.633Z,11.90
2018-10-21T16:47:42.406Z,11.80
2018-10-21T16:50:14.962Z,11.80
2018-10-21T16:52:44.811Z,11.70
2018-10-21T16:55:14.369Z,11.50
2018-10-21T16:57:43.378Z,11.40
2018-10-21T17:00:14.230Z,11.40
2018-10-21T17:02:43.844Z,11.20
2018-10-21T17:05:12.731Z,11.10
2018-10-21T17:07:41.607Z,11.10
2018-10-21T17:10:11.649Z,11.10
2018-10-21T17:12:40.301Z,10.90
2018-10-21T17:15:10.488Z,10.80
2018-10-21T17:17:39.876Z,10.70
2018-10-21T17:20:10.964Z,10.70
2018-10-21T17:22:40.581Z,10.50
2018-10-21T17:25:09.663Z,10.30
2018-10-21T17:27:38.624Z,10.30
2018-10-21T17:30:10.062Z,10.30
2018-10-21T17:32:38.979Z,10.20
2018-10-21T17:35:08.651Z,10.10
2018-10-21T17:37:37.771Z,9.80
2018-10-21T17:40:07.777Z,9.80
2018-10-21T17:42:36.586Z,9.80
2018-10-21T17:45:07.215Z,9.70
2018-10-21T17:47:36.193Z,9.80
2018-10-21T17:50:05.864Z,9.70
2018-10-21T17:52:34.899Z,9.60
2018-10-21T17:55:04.090Z,9.60
2018-10-21T17:57:33.059Z,9.50
2018-10-21T18:00:02.018Z,9.50
2018-10-21T18:02:30.755Z,9.40
2018-10-21T18:04:59.607Z,9.30
2018-10-21T18:07:29.273Z,9.20
2018-10-21T18:09:58.250Z,9.10
2018-10-21T18:12:27.208Z,9.00
2018-10-21T18:14:55.891Z,11.70
2018-10-21T18:17:25.067Z,8.90
2018-10-21T18:19:54.054Z,8.80
2018-10-21T18:22:23.658Z,8.70
2018-10-21T18:24:52.714Z,8.50
2018-10-21T18:27:22.270Z,8.50
2018-10-21T18:29:51.386Z,8.50
2018-10-21T18:32:20.199Z,8.40
2018-10-21T18:34:49.293Z,8.30
2018-10-21T18:37:18.416Z,8.40
2018-10-21T18:39:47.170Z,8.50
2018-10-21T18:42:15.972Z,8.30
2018-10-21T18:44:45.024Z,8.30
2018-10-21T18:47:14.258Z,8.10
2018-10-21T18:49:43.216Z,8.10
2018-10-21T18:52:12.505Z,8.00
2018-10-21T18:54:41.896Z,8.00
2018-10-21T18:57:10.893Z,8.00
2018-10-21T18:59:39.925Z,8.00
2018-10-21T19:02:09.026Z,7.90
2018-10-21T19:04:38.336Z,7.80
2018-10-21T19:07:08.446Z,7.70
2018-10-21T19:09:37.230Z,7.60
2018-10-21T19:12:06.447Z,7.50
2018-10-21T19:14:35.538Z,7.60
2018-10-21T19:17:04.683Z,7.50
2018-10-21T19:19:34.043Z,7.50
2018-10-21T19:22:03.355Z,7.50
2018-10-21T19:24:32.166Z,7.40
2018-10-21T19:27:01.518Z,7.40
2018-10-21T19:29:30.613Z,7.40
2018-10-21T19:31:59.704Z,7.40
2018-10-21T19:34:29.090Z,7.30
2018-10-21T19:36:58.217Z,7.20
2018-10-21T19:39:27.472Z,7.20
2018-10-21T19:41:56.639Z,7.10
2018-10-21T19:44:25.622Z,7.10
2018-10-21T19:46:54.954Z,7.00
2018-10-21T19:49:24.282Z,7.00
2018-10-21T19:51:53.324Z,7.10
2018-10-21T19:54:22.644Z,7.00
2018-10-21T19:56:51.779Z,7.00
2018-10-21T19:59:20.725Z,6.80
2018-10-21T20:01:49.670Z,6.70
2018-10-21T20:04:18.776Z,6.60
2018-10-21T20:06:47.943Z,6.60
2018-10-21T20:09:16.970Z,6.50
2018-10-21T20:11:45.946Z,6.50
2018-10-21T20:14:14.808Z,6.40
2018-10-21T20:16:43.995Z,6.40
2018-10-21T20:19:12.968Z,6.40
2018-10-21T20:21:41.801Z,6.30
2018-10-21T20:24:10.753Z,6.40
2018-10-21T20:26:39.819Z,6.30
2018-10-21T20:29:09.038Z,6.30
2018-10-21T20:31:37.756Z,6.30
2018-10-21T20:34:07.287Z,6.30
2018-10-21T20:36:36.019Z,6.30
2018-10-21T20:39:06.909Z,6.20
2018-10-21T20:41:35.980Z,6.10
2018-10-21T20:44:04.831Z,6.00
2018-10-21T20:46:33.451Z,6.10
2018-10-21T20:49:02.548Z,6.00
2018-10-21T20:51:31.514Z,6.00
2018-10-21T20:54:00.056Z,6.00
2018-10-21T20:56:29.176Z,6.00
2018-10-21T20:58:57.894Z,6.00
2018-10-21T21:01:26.839Z,6.00
2018-10-21T21:03:55.991Z,5.80
2018-10-21T21:06:25.147Z,5.80
2018-10-21T21:08:54.012Z,5.80
2018-10-21T21:11:22.913Z,5.60
2018-10-21T21:13:51.849Z,5.60
2018-10-21T21:16:20.566Z,5.60
2018-10-21T21:18:49.138Z,5.60
2018-10-21T21:21:17.948Z,5.60
2018-10-21T21:23:46.907Z,5.60
2018-10-21T21:26:16.039Z,5.50
2018-10-21T21:28:44.906Z,5.30
2018-10-21T21:31:13.682Z,5.30
2018-10-21T21:33:42.687Z,5.40
2018-10-21T21:36:11.637Z,5.40
2018-10-21T21:38:40.399Z,5.40
2018-10-21T21:41:09.389Z,5.40
2018-10-21T21:43:38.230Z,5.30
2018-10-21T21:46:06.889Z,5.20
2018-10-21T21:48:35.698Z,5.10
2018-10-21T21:51:04.415Z,5.00
2018-10-21T21:53:33.321Z,4.90
2018-10-21T21:56:02.030Z,4.90
2018-10-21T21:58:30.640Z,5.00
2018-10-21T22:00:59.428Z,4.90
2018-10-21T22:03:28.084Z,5.00
2018-10-21T22:05:56.865Z,5.10
2018-10-21T22:08:25.508Z,5.00
2018-10-21T22:10:54.427Z,4.90
2018-10-21T22:13:23.068Z,4.90
2018-10-21T22:15:51.929Z,4.80
2018-10-21T22:18:20.500Z,4.80
2018-10-21T22:20:49.419Z,4.80
2018-10-21T22:23:18.358Z,4.80
2018-10-21T22:25:47.501Z,4.80
2018-10-21T22:28:16.470Z,4.80
2018-10-21T22:30:45.009Z,4.80
2018-10-21T22:33:13.578Z,4.80
2018-10-21T22:35:42.089Z,4.80
2018-10-21T22:38:10.740Z,4.80
2018-10-21T22:40:39.311Z,4.60
2018-10-21T22:43:08.293Z,4.60
2018-10-21T22:45:37.088Z,4.60
2018-10-21T22:48:06.049Z,4.60
2018-10-21T22:50:34.871Z,4.30
2018-10-21T22:53:03.654Z,4.30
2018-10-21T22:55:32.296Z,4.40
2018-10-21T22:58:00.936Z,4.30
2018-10-21T23:00:29.868Z,4.30
2018-10-21T23:02:58.760Z,4.20
2018-10-21T23:05:27.590Z,4.30
2018-10-21T23:07:56.276Z,4.30
2018-10-21T23:10:24.955Z,4.30
2018-10-21T23:12:53.580Z,4.30
2018-10-21T23:15:22.136Z,4.40
2018-10-21T23:17:50.992Z,4.30
2018-10-21T23:20:19.610Z,4.00
2018-10-21T23:22:48.133Z,4.00
2018-10-21T23:25:16.872Z,3.90
2018-10-21T23:27:45.552Z,3.90
2018-10-21T23:30:14.479Z,4.00
2018-10-21T23:32:42.955Z,4.00
2018-10-21T23:35:11.874Z,4.00
2018-10-21T23:37:40.432Z,4.00
2018-10-21T23:40:09.108Z,4.00
2018-10-21T23:42:38.099Z,3.80
2018-10-21T23:45:06.616Z,4.00
2018-10-21T23:47:35.164Z,4.00
2018-10-21T23:50:03.814Z,3.90
2018-10-21T23:52:32.394Z,4.00
2018-10-21T23:55:01.184Z,3.90
2018-10-21T23:57:29.764Z,3.90
2018-10-21T23:59:58.334Z,4.00
